createdAt,value
2019-04-23T00:01:38.118Z,6.40
2019-04-23T00:04:07.143Z,6.80
2019-04-23T00:06:43.883Z,6.33
2019-04-23T00:09:13.083Z,5.67
2019-04-23T00:11:45.879Z,6.20
2019-04-23T00:14:20.356Z,6.13
2019-04-23T00:16:50.988Z,6.13
2019-04-23T00:19:16.959Z,6.13
2019-04-23T00:22:07.034Z,6.30
2019-04-23T00:25:19.197Z,6.60
2019-04-23T00:27:29.223Z,6.20
2019-04-23T00:29:56.014Z,6.60
2019-04-23T00:32:28.709Z,6.13
2019-04-23T00:35:02.519Z,6.43
2019-04-23T00:40:00.716Z,6.00
2019-04-23T00:45:18.148Z,7.40
2019-04-23T00:50:15.962Z,6.97
2019-04-23T00:52:40.073Z,6.70
2019-04-23T00:55:14.773Z,7.07
2019-04-23T00:57:48.716Z,7.00
2019-04-23T01:00:19.285Z,7.00
2019-04-23T01:02:52.867Z,6.73
2019-04-23T01:07:50.003Z,7.33
2019-04-23T01:10:27.338Z,7.07
2019-04-23T01:13:00.075Z,6.73
2019-04-23T01:15:32.655Z,7.03
2019-04-23T01:22:57.112Z,7.27
2019-04-23T01:25:51.672Z,6.77
2019-04-23T01:28:35.559Z,6.77
2019-04-23T01:31:08.933Z,7.50
2019-04-23T01:38:52.313Z,7.97
2019-04-23T01:41:25.214Z,7.60
2019-04-23T01:43:47.806Z,7.60
2019-04-23T01:46:33.246Z,7.73
2019-04-23T01:48:58.182Z,6.80
2019-04-23T01:51:39.921Z,7.67
2019-04-23T01:54:02.962Z,7.70
2019-04-23T01:56:33.224Z,7.13
2019-04-23T01:59:10.830Z,7.43
2019-04-23T02:01:48.040Z,6.83
2019-04-23T02:04:16.504Z,7.20
2019-04-23T02:06:45.840Z,6.50
2019-04-23T02:09:16.701Z,7.73
2019-04-23T02:11:55.162Z,7.30
2019-04-23T02:14:22.861Z,8.03
2019-04-23T02:16:55.112Z,7.30
2019-04-23T02:19:33.244Z,7.00
2019-04-23T02:22:03.712Z,7.63
2019-04-23T02:24:41.271Z,7.13
2019-04-23T02:27:13.333Z,6.67
2019-04-23T02:29:51.498Z,7.63
2019-04-23T02:32:23.751Z,6.47
2019-04-23T02:34:57.883Z,7.63
2019-04-23T02:37:36.300Z,7.70
2019-04-23T02:40:23.298Z,7.40
2019-04-23T02:45:04.794Z,6.97
2019-04-23T02:47:46.798Z,7.53
2019-04-23T02:50:28.237Z,7.60
2019-04-23T02:55:29.315Z,7.13
2019-04-23T03:02:54.597Z,22.87
2019-04-23T03:05:35.969Z,24.97
2019-04-23T03:10:23.008Z,10.23
2019-04-23T03:13:04.461Z,29.60
2019-04-23T03:15:39.753Z,24.00
2019-04-23T03:28:57.602Z,6.60
2019-04-23T03:32:45.922Z,7.53
2019-04-23T03:35:31.123Z,9.00
2019-04-23T03:37:06.678Z,10.67
2019-04-23T03:38:51.965Z,13.13
2019-04-23T03:41:41.771Z,15.97
2019-04-23T03:43:51.905Z,12.77
2019-04-23T03:49:05.597Z,10.87
2019-04-23T03:51:53.980Z,9.17
2019-04-23T03:55:19.069Z,10.40
2019-04-23T03:57:13.947Z,10.30
2019-04-23T04:07:22.531Z,8.60
2019-04-23T04:12:07.978Z,9.13
2019-04-23T04:17:09.490Z,10.20
2019-04-23T04:19:41.135Z,9.40
2019-04-23T04:22:18.258Z,8.33
2019-04-23T04:24:40.375Z,7.20
2019-04-23T04:32:11.769Z,9.17
2019-04-23T04:35:12.492Z,11.40
2019-04-23T04:40:04.632Z,8.13
2019-04-23T04:45:14.156Z,7.80
2019-04-23T04:47:42.546Z,7.30
2019-04-23T04:50:11.376Z,7.50
2019-04-23T05:00:39.806Z,7.87
2019-04-23T05:03:09.425Z,7.67
2019-04-23T05:05:58.309Z,7.13
2019-04-23T05:08:00.736Z,7.63
2019-04-23T05:10:43.298Z,6.80
2019-04-23T05:20:53.394Z,6.90
2019-04-23T05:23:22.862Z,6.67
2019-04-23T05:25:51.423Z,6.77
2019-04-23T05:28:24.580Z,6.03
2019-04-23T05:31:02.414Z,6.83
2019-04-23T05:33:21.839Z,6.60
2019-04-23T05:36:12.635Z,6.60
2019-04-23T05:41:16.920Z,6.33
2019-04-23T05:43:46.893Z,6.10
2019-04-23T05:46:21.896Z,6.70
2019-04-23T05:48:52.598Z,6.40
2019-04-23T05:51:29.722Z,6.00
2019-04-23T05:53:58.533Z,6.13
2019-04-23T05:56:29.152Z,6.57
2019-04-23T05:59:05.500Z,5.77
2019-04-23T06:04:24.827Z,6.17
2019-04-23T06:07:12.969Z,6.50
2019-04-23T06:11:58.616Z,6.20
2019-04-23T06:14:29.092Z,5.63
2019-04-23T06:17:09.606Z,5.90
2019-04-23T06:22:26.880Z,6.40
2019-04-23T06:24:43.037Z,6.07
2019-04-23T06:27:22.063Z,6.87
2019-04-23T06:35:13.873Z,6.10
2019-04-23T06:40:23.636Z,6.23
2019-04-23T06:43:01.018Z,7.47
2019-04-23T06:45:33.867Z,6.33
2019-04-23T06:48:09.013Z,6.63
2019-04-23T06:50:46.209Z,6.30
2019-04-23T06:53:07.006Z,7.70
2019-04-23T06:55:50.693Z,6.33
2019-04-23T06:58:25.970Z,6.70
2019-04-23T07:00:51.257Z,6.63
2019-04-23T07:03:21.893Z,6.50
2019-04-23T07:16:22.855Z,6.03
2019-04-23T07:19:18.403Z,6.70
2019-04-23T07:21:42.142Z,5.90
2019-04-23T07:26:41.075Z,7.10
2019-04-23T07:29:15.931Z,6.77
2019-04-23T07:31:51.522Z,6.13
2019-04-23T07:34:20.461Z,6.80
2019-04-23T07:36:55.749Z,6.17
2019-04-23T07:39:42.937Z,6.10
2019-04-23T07:42:18.790Z,6.17
2019-04-23T07:45:02.118Z,6.43
2019-04-23T07:48:03.856Z,7.30
2019-04-23T07:53:05.640Z,7.07
2019-04-23T07:55:34.467Z,6.20
2019-04-23T07:58:07.959Z,6.43
2019-04-23T08:00:41.393Z,6.57
2019-04-23T08:03:17.310Z,6.47
2019-04-23T08:05:39.822Z,6.73
2019-04-23T08:08:15.575Z,6.13
2019-04-23T08:11:03.131Z,6.27
2019-04-23T08:13:32.332Z,7.20
2019-04-23T08:16:13.744Z,7.57
2019-04-23T08:18:45.269Z,6.10
2019-04-23T08:21:10.589Z,6.40
2019-04-23T08:24:01.658Z,6.30
2019-04-23T08:26:55.238Z,6.43
2019-04-23T08:29:25.113Z,6.33
2019-04-23T08:32:11.795Z,6.07
2019-04-23T08:37:15.625Z,6.67
2019-04-23T08:39:57.106Z,7.70
2019-04-23T08:42:56.278Z,6.97
2019-04-23T08:45:31.393Z,6.83
2019-04-23T08:48:29.880Z,6.67
2019-04-23T08:50:57.791Z,6.77
2019-04-23T08:56:27.479Z,6.63
2019-04-23T08:58:41.561Z,6.83
2019-04-23T09:01:16.885Z,6.40
2019-04-23T09:03:46.067Z,6.53
2019-04-23T09:06:20.298Z,6.70
2019-04-23T09:08:50.371Z,7.13
2019-04-23T09:13:57.448Z,6.60
2019-04-23T09:19:11.143Z,6.27
2019-04-23T09:21:33.209Z,6.43
2019-04-23T09:24:03.728Z,6.40
2019-04-23T09:26:42.220Z,5.63
2019-04-23T09:29:23.097Z,5.97
2019-04-23T09:32:22.427Z,6.67
2019-04-23T09:35:14.603Z,6.70
2019-04-23T09:43:33.274Z,6.40
2019-04-23T09:46:29.019Z,5.83
2019-04-23T09:49:00.070Z,6.27
2019-04-23T09:51:27.805Z,6.07
2019-04-23T09:53:51.189Z,6.00
2019-04-23T09:56:32.138Z,7.10
2019-04-23T09:59:06.942Z,7.10
2019-04-23T10:03:50.821Z,7.07
2019-04-23T10:06:14.564Z,6.13
2019-04-23T10:08:45.804Z,6.07
2019-04-23T10:11:11.871Z,6.80
2019-04-23T10:13:44.822Z,6.07
2019-04-23T10:16:19.219Z,5.93
2019-04-23T10:18:47.176Z,6.77
2019-04-23T10:21:17.573Z,6.80
2019-04-23T10:23:47.614Z,6.60
2019-04-23T10:26:17.338Z,6.70
2019-04-23T10:28:54.084Z,5.67
2019-04-23T10:31:25.148Z,5.83
2019-04-23T10:33:56.092Z,25.80
2019-04-23T10:36:29.460Z,6.33
2019-04-23T10:39:04.955Z,6.13
2019-04-23T10:41:30.594Z,5.90
2019-04-23T10:44:11.145Z,6.07
2019-04-23T10:47:17.767Z,6.03
2019-04-23T10:52:36.199Z,6.67
2019-04-23T10:55:11.861Z,6.33
2019-04-23T10:57:26.520Z,6.47
2019-04-23T10:59:53.452Z,6.77
2019-04-23T11:02:40.399Z,6.70
2019-04-23T11:05:26.081Z,6.37
2019-04-23T11:07:33.946Z,6.87
2019-04-23T11:10:17.470Z,6.63
2019-04-23T11:12:49.084Z,6.20
2019-04-23T11:15:32.278Z,5.90
2019-04-23T11:22:57.423Z,6.00
2019-04-23T11:25:37.920Z,5.73
2019-04-23T11:30:36.175Z,5.83
2019-04-23T11:36:05.458Z,6.30
2019-04-23T11:40:49.049Z,6.63
2019-04-23T11:43:28.443Z,6.10
2019-04-23T11:46:06.365Z,5.87
2019-04-23T11:48:46.409Z,6.30
2019-04-23T11:51:41.000Z,6.50
2019-04-23T11:53:58.034Z,6.57
2019-04-23T11:56:49.207Z,6.50
2019-04-23T11:58:59.229Z,6.00
2019-04-23T12:04:47.966Z,8.47
2019-04-23T12:07:24.267Z,6.73
2019-04-23T12:10:15.975Z,6.57
2019-04-23T12:12:33.273Z,6.70
2019-04-23T12:18:14.823Z,6.73
2019-04-23T12:20:48.841Z,6.77
2019-04-23T12:26:34.188Z,7.93
2019-04-23T12:28:49.924Z,6.37
2019-04-23T12:31:28.641Z,6.67
2019-04-23T12:33:57.447Z,7.13
2019-04-23T12:36:43.720Z,7.20
2019-04-23T12:40:25.058Z,7.53
2019-04-23T12:48:15.741Z,6.43
2019-04-23T12:53:29.253Z,6.83
2019-04-23T12:56:02.005Z,6.03
2019-04-23T12:58:32.250Z,7.00
2019-04-23T13:01:19.487Z,6.50
2019-04-23T13:03:41.253Z,7.10
2019-04-23T13:06:16.966Z,6.40
2019-04-23T13:09:05.953Z,6.50
2019-04-23T13:11:34.906Z,6.43
2019-04-23T13:13:51.930Z,6.63
2019-04-23T13:16:44.574Z,7.37
2019-04-23T13:19:01.385Z,6.60
2019-04-23T13:24:11.320Z,7.03
2019-04-23T13:26:46.376Z,7.60
2019-04-23T13:29:18.570Z,8.03
2019-04-23T13:31:48.924Z,7.93
2019-04-23T13:34:23.305Z,7.40
2019-04-23T13:36:56.410Z,6.97
2019-04-23T13:39:33.285Z,8.67
2019-04-23T13:42:04.721Z,9.53
2019-04-23T13:44:34.351Z,8.37
2019-04-23T13:47:10.896Z,7.60
2019-04-23T13:49:37.749Z,8.37
2019-04-23T13:54:58.128Z,8.63
2019-04-23T14:02:17.155Z,9.30
2019-04-23T14:04:53.363Z,8.43
2019-04-23T14:07:32.280Z,9.97
2019-04-23T14:12:31.848Z,9.60
2019-04-23T14:17:37.980Z,8.13
2019-04-23T14:19:59.855Z,8.70
2019-04-23T14:22:56.051Z,9.80
2019-04-23T14:25:05.791Z,9.57
2019-04-23T14:27:43.030Z,10.07
2019-04-23T14:30:13.140Z,10.23
2019-04-23T14:32:35.279Z,11.33
2019-04-23T14:35:21.302Z,11.83
2019-04-23T14:37:54.872Z,10.70
2019-04-23T14:40:21.672Z,10.87
2019-04-23T14:43:00.093Z,11.27
2019-04-23T14:45:44.201Z,10.73
2019-04-23T14:48:06.014Z,11.10
2019-04-23T14:53:18.171Z,11.97
2019-04-23T14:55:51.015Z,12.63
2019-04-23T14:58:15.907Z,12.00
2019-04-23T15:00:59.900Z,11.53
2019-04-23T15:06:00.128Z,13.27
2019-04-23T15:08:24.283Z,14.50
2019-04-23T15:11:08.142Z,14.13
2019-04-23T15:16:04.266Z,10.17
2019-04-23T15:18:45.226Z,10.77
2019-04-23T15:23:59.104Z,9.17
2019-04-23T15:28:26.092Z,8.70
2019-04-23T15:36:41.325Z,9.07
2019-04-23T15:39:11.644Z,9.27
2019-04-23T15:41:31.824Z,9.60
2019-04-23T15:44:07.348Z,9.43
2019-04-23T15:49:18.279Z,9.10
2019-04-23T15:54:13.686Z,9.70
2019-04-23T15:56:44.532Z,8.13
2019-04-23T15:59:25.890Z,7.50
2019-04-23T16:01:37.632Z,7.77
2019-04-23T16:03:49.156Z,7.40
2019-04-23T16:06:22.020Z,7.40
2019-04-23T16:09:21.062Z,8.03
2019-04-23T16:16:51.315Z,6.77
2019-04-23T16:19:43.964Z,7.40
2019-04-23T16:22:11.324Z,7.13
2019-04-23T16:24:48.737Z,8.03
2019-04-23T16:30:02.006Z,8.87
2019-04-23T16:32:28.084Z,7.90
2019-04-23T16:35:14.117Z,7.77
2019-04-23T16:37:39.129Z,6.20
2019-04-23T16:40:19.865Z,7.30
2019-04-23T16:42:40.083Z,6.77
2019-04-23T16:45:12.640Z,7.80
2019-04-23T16:47:36.451Z,8.50
2019-04-23T16:50:11.410Z,9.30
2019-04-23T16:52:42.217Z,11.10
2019-04-23T16:55:17.814Z,9.23
2019-04-23T16:57:59.847Z,11.67
2019-04-23T17:02:55.643Z,11.43
2019-04-23T17:05:31.500Z,9.90
2019-04-23T17:08:25.280Z,10.07
2019-04-23T17:10:39.604Z,10.67
2019-04-23T17:13:19.287Z,10.80
2019-04-23T17:15:48.652Z,10.57
2019-04-23T17:18:12.013Z,9.27
2019-04-23T17:20:51.942Z,9.80
2019-04-23T17:25:59.240Z,9.30
2019-04-23T17:31:26.260Z,10.30
2019-04-23T17:33:41.614Z,10.47
2019-04-23T17:36:35.762Z,10.00
2019-04-23T17:47:14.078Z,10.07
2019-04-23T17:49:52.672Z,11.17
2019-04-23T17:52:20.321Z,10.50
2019-04-23T17:54:55.342Z,10.03
2019-04-23T17:57:24.290Z,10.73
2019-04-23T18:00:12.044Z,9.93
2019-04-23T18:02:51.814Z,9.97
2019-04-23T18:05:06.203Z,9.97
2019-04-23T18:10:48.638Z,8.77
2019-04-23T18:13:29.277Z,9.13
2019-04-23T18:22:09.394Z,11.17
2019-04-23T18:25:06.196Z,10.00
2019-04-23T18:27:35.930Z,10.27
2019-04-23T18:30:11.834Z,7.50
2019-04-23T18:33:43.740Z,8.87
2019-04-23T18:38:18.563Z,6.17
2019-04-23T18:43:29.391Z,6.13
2019-04-23T18:48:50.088Z,5.40
2019-04-23T18:51:10.496Z,5.23
2019-04-23T18:54:07.434Z,5.40
2019-04-23T18:57:06.422Z,5.47
2019-04-23T19:02:07.935Z,6.17
2019-04-23T19:07:31.884Z,6.13
2019-04-23T19:10:29.612Z,5.73
2019-04-23T19:15:37.097Z,5.93
2019-04-23T19:18:04.003Z,5.80
2019-04-23T19:21:02.583Z,6.73
2019-04-23T19:23:34.339Z,6.00
2019-04-23T19:25:59.499Z,5.53
2019-04-23T19:36:54.923Z,6.43
2019-04-23T19:39:24.602Z,6.33
2019-04-23T19:44:24.943Z,5.77
2019-04-23T19:52:30.850Z,6.13
2019-04-23T19:57:13.593Z,6.73
2019-04-23T19:59:55.325Z,6.00
2019-04-23T20:02:33.834Z,5.50
2019-04-23T20:04:55.464Z,5.30
2019-04-23T20:07:43.124Z,5.23
2019-04-23T20:09:55.232Z,5.50
2019-04-23T20:12:39.066Z,5.93
2019-04-23T20:15:00.013Z,6.07
2019-04-23T20:17:42.751Z,6.00
2019-04-23T20:20:18.238Z,5.57
2019-04-23T20:22:52.349Z,5.70
2019-04-23T20:28:33.674Z,5.50
2019-04-23T20:31:12.190Z,5.57
2019-04-23T20:34:07.673Z,5.60
2019-04-23T20:39:12.158Z,7.10
2019-04-23T20:42:07.870Z,5.77
2019-04-23T20:50:04.202Z,5.37
2019-04-23T20:58:31.256Z,5.27
2019-04-23T21:01:13.167Z,5.17
2019-04-23T21:03:49.132Z,5.53
2019-04-23T21:06:30.077Z,5.83
2019-04-23T21:09:20.195Z,5.00
2019-04-23T21:12:04.708Z,5.20
2019-04-23T21:14:48.441Z,5.10
2019-04-23T21:20:50.019Z,5.07
2019-04-23T21:23:14.218Z,5.50
2019-04-23T21:25:52.640Z,4.83
2019-04-23T21:28:35.886Z,5.53
2019-04-23T21:31:40.564Z,5.00
2019-04-23T21:34:06.001Z,4.77
2019-04-23T21:36:45.579Z,5.50
2019-04-23T21:39:47.979Z,5.57
2019-04-23T21:42:14.128Z,5.13
2019-04-23T21:44:45.658Z,5.57
2019-04-23T21:47:21.151Z,5.87
2019-04-23T21:50:03.058Z,5.47
2019-04-23T21:52:32.165Z,5.80
2019-04-23T21:55:03.622Z,5.53
2019-04-23T21:57:44.252Z,6.07
2019-04-23T22:00:10.056Z,5.77
2019-04-23T22:08:10.391Z,6.17
2019-04-23T22:10:45.410Z,6.57
2019-04-23T22:13:20.324Z,6.10
2019-04-23T22:18:14.343Z,5.90
2019-04-23T22:24:02.447Z,6.53
2019-04-23T22:26:28.959Z,6.23
2019-04-23T22:29:05.527Z,6.30
2019-04-23T22:34:17.115Z,6.50
2019-04-23T22:36:36.999Z,7.03
2019-04-23T22:39:04.568Z,7.40
2019-04-23T22:41:42.176Z,7.67
2019-04-23T22:44:22.502Z,7.80
2019-04-23T22:54:14.112Z,7.63
2019-04-23T22:57:01.157Z,8.23
2019-04-23T23:02:07.754Z,7.73
2019-04-23T23:04:41.038Z,7.80
2019-04-23T23:09:43.605Z,7.10
2019-04-23T23:12:14.398Z,7.67
2019-04-23T23:17:24.204Z,8.07
2019-04-23T23:20:01.228Z,8.67
2019-04-23T23:25:06.674Z,9.27
2019-04-23T23:27:29.951Z,8.90
2019-04-23T23:32:31.521Z,9.10
2019-04-23T23:35:44.481Z,9.20
2019-04-23T23:37:39.731Z,8.60
2019-04-23T23:42:45.906Z,8.17
2019-04-23T23:45:25.620Z,10.13
2019-04-23T23:47:45.412Z,8.23
2019-04-23T23:50:35.067Z,9.77
2019-04-23T23:52:55.157Z,10.50
2019-04-23T23:55:21.250Z,9.47
2019-04-23T23:58:04.454Z,9.73
